Time;durP1;ratioP1;P1;durP2;ratioP2;P2;SDS_P1;SDS_P2;PMS_P1;PMS_P2;Temp;Humidity;BMP_temperature;BMP_pressure;BME280_temperature;BME280_humidity;BME280_pressure;Samples;Min_cycle;Max_cycle;Signal;HPM_P1;HPM_P2
2021/04/15 00:00:21;;;;;;;10.65;3.60;;;;;;;1.56;68.95;102814.59;5058961;28;20033;-75
2021/04/15 00:02:47;;;;;;;6.38;3.50;;;;;;;1.58;68.34;102810.00;5061618;28;20041;-75
2021/04/15 00:05:16;;;;;;;7.07;2.97;;;;;;;1.58;68.89;102805.56;5062749;28;20036;-75
2021/04/15 00:07:42;;;;;;;5.97;3.05;;;;;;;1.59;68.56;102811.69;5057317;28;20102;-75
2021/04/15 00:10:09;;;;;;;5.32;3.05;;;;;;;1.59;68.78;102803.75;5061962;28;20068;-75
2021/04/15 00:12:36;;;;;;;5.93;2.72;;;;;;;1.61;68.44;102804.44;5061292;28;20039;-75
2021/04/15 00:15:05;;;;;;;5.55;2.92;;;;;;;1.60;69.13;102797.50;5058925;28;20068;-75
2021/04/15 00:17:30;;;;;;;5.45;3.20;;;;;;;1.64;69.01;102802.38;5059449;28;20024;-75
2021/04/15 00:19:56;;;;;;;7.18;3.50;;;;;;;1.62;69.02;102795.56;5060466;28;20031;-75
2021/04/15 00:22:22;;;;;;;5.82;3.38;;;;;;;1.62;69.10;102798.22;5062395;28;20020;-75
2021/04/15 00:24:47;;;;;;;6.38;3.30;;;;;;;1.63;68.83;102797.25;5061391;28;20032;-75
2021/04/15 00:27:13;;;;;;;6.93;3.05;;;;;;;1.64;68.59;102802.38;5064476;28;20075;-75
2021/04/15 00:29:38;;;;;;;7.95;3.50;;;;;;;1.59;69.04;102801.94;5060665;28;20028;-75
2021/04/15 00:32:04;;;;;;;6.43;3.42;;;;;;;1.49;69.76;102796.66;5062335;28;20028;-75
2021/04/15 00:34:30;;;;;;;8.93;3.83;;;;;;;1.48;69.71;102791.53;5062593;28;20067;-75
2021/04/15 00:36:55;;;;;;;7.80;3.50;;;;;;;1.46;69.16;102793.47;5057351;28;20052;-75
2021/04/15 00:39:21;;;;;;;6.25;3.20;;;;;;;1.46;69.00;102786.38;5062198;28;20221;-75
2021/04/15 00:41:46;;;;;;;9.48;4.07;;;;;;;1.46;69.46;102793.47;5060061;28;20037;-75
2021/04/15 00:44:12;;;;;;;11.15;3.45;;;;;;;1.45;68.92;102792.63;5059287;28;20407;-75
2021/04/15 00:46:54;;;;;;;9.15;3.83;;;;;;;1.28;71.39;102790.69;5061999;28;20033;-75
2021/04/15 00:49:28;;;;;;;7.20;3.40;;;;;;;1.28;70.93;102789.84;5062135;28;20120;-75
2021/04/15 00:51:56;;;;;;;;;;;;;;;1.14;72.94;102791.91;5056900;28;20483;-75
2021/04/15 00:54:30;;;;;;;6.38;3.05;;;;;;;1.17;71.25;102794.25;5055951;28;19917;-75
2021/04/15 00:56:56;;;;;;;9.25;4.32;;;;;;;1.21;70.93;102794.81;5061177;28;20027;-75
2021/04/15 00:59:22;;;;;;;6.72;3.80;;;;;;;1.23;70.28;102792.88;5042718;28;20110;-75
2021/04/15 01:01:48;;;;;;;7.40;3.15;;;;;;;1.20;71.03;102796.63;5057657;28;20504;-75
2021/04/15 01:04:14;;;;;;;6.25;3.65;;;;;;;1.23;70.94;102789.41;5059459;28;20107;-75
2021/04/15 01:06:40;;;;;;;9.10;3.38;;;;;;;1.21;71.20;102789.53;5050133;28;20020;-75
2021/04/15 01:09:06;;;;;;;6.25;2.95;;;;;;;1.26;70.86;102791.75;5044662;28;20635;-75
2021/04/15 01:11:56;;;;;;;6.68;3.72;;;;;;;1.25;70.74;102785.66;5048228;28;20032;-75
2021/04/15 01:14:44;;;;;;;7.65;3.45;;;;;;;1.12;73.86;102780.66;5077294;28;20043;-75
2021/04/15 01:17:18;;;;;;;8.90;3.40;;;;;;;1.14;72.71;102783.97;5066471;28;20120;-75
2021/04/15 01:20:02;;;;;;;6.10;3.35;;;;;;;1.13;72.28;102787.59;5055225;28;20059;-75
2021/04/15 01:22:46;;;;;;;6.68;3.13;;;;;;;1.22;70.80;102785.91;5040763;28;20705;-75
2021/04/15 01:25:41;;;;;;;8.23;3.63;;;;;;;1.11;73.48;102791.34;5058072;28;20525;-75
2021/04/15 01:28:09;;;;;;;5.78;3.03;;;;;;;1.11;72.21;102783.41;5079908;28;20024;-75
2021/04/15 01:30:42;;;;;;;8.10;3.42;;;;;;;1.09;72.39;102780.09;5071064;28;20140;-75
2021/04/15 01:33:26;;;;;;;8.10;3.80;;;;;;;1.05;72.32;102778.66;5051370;28;20027;-75
2021/04/15 01:36:02;;;;;;;5.78;3.22;;;;;;;1.04;72.80;102780.47;5070007;28;20037;-75
2021/04/15 01:38:36;;;;;;;6.25;3.65;;;;;;;1.02;73.47;102778.94;5059727;28;20096;-75
2021/04/15 01:41:08;;;;;;;8.40;3.33;;;;;;;1.06;72.14;102780.34;5037538;28;20119;-75
2021/04/15 01:43:54;;;;;;;7.63;3.65;;;;;;;0.95;74.49;102775.19;5043833;28;20032;-75
2021/04/15 01:46:27;;;;;;;5.32;3.47;;;;;;;1.01;72.82;102782.56;5043485;28;20530;-75
2021/04/15 01:48:53;;;;;;;6.82;3.78;;;;;;;1.02;72.49;102782.41;5055014;28;20541;-75
2021/04/15 01:51:22;;;;;;;7.50;3.85;;;;;;;0.97;73.85;102775.88;5041020;28;20025;-75
2021/04/15 01:54:04;;;;;;;9.90;3.85;;;;;;;1.02;72.46;102776.31;5057031;28;20032;-75
2021/04/15 01:56:45;;;;;;;10.35;4.30;;;;;;;0.91;75.62;102772.00;5053417;28;20052;-75
2021/04/15 01:59:11;;;;;;;8.40;4.63;;;;;;;0.98;72.86;102781.03;5058907;28;20692;-75
2021/04/15 02:01:45;;;;;;;8.25;3.85;;;;;;;0.98;73.55;102773.09;5070791;28;20119;-75
2021/04/15 02:04:18;;;;;;;;;;;;;;;0.92;74.92;102773.66;5037267;28;20024;-75
2021/04/15 02:06:50;;;;;;;7.50;3.97;;;;;;;0.75;76.57;102775.13;5060395;28;20011;-75
2021/04/15 02:09:17;;;;;;;8.38;3.72;;;;;;;0.88;73.83;102774.88;5043132;28;20052;-75
2021/04/15 02:11:57;;;;;;;6.53;4.30;;;;;;;0.77;75.10;102775.00;5058591;28;20040;-75
2021/04/15 02:14:27;;;;;;;6.72;3.90;;;;;;;0.77;75.18;102775.84;5056505;28;20363;-75
2021/04/15 02:16:54;;;;;;;7.70;3.60;;;;;;;0.73;75.27;102778.88;5044608;28;20052;-75
2021/04/15 02:19:30;;;;;;;5.72;3.45;;;;;;;0.69;75.59;102769.53;5040785;28;20021;-75
2021/04/15 02:22:10;;;;;;;6.60;4.28;;;;;;;0.68;75.84;102775.78;5057227;28;20623;-75
2021/04/15 02:24:47;;;;;;;8.38;3.65;;;;;;;0.63;76.36;102778.81;5067790;28;20040;-75
2021/04/15 02:27:19;;;;;;;7.13;4.00;;;;;;;0.61;76.79;102783.41;5037358;28;20028;-75
2021/04/15 02:29:50;;;;;;;10.75;4.13;;;;;;;0.68;75.37;102770.50;5040518;28;20029;-75
2021/04/15 02:32:29;;;;;;;7.70;4.30;;;;;;;0.72;75.44;102778.03;5054253;28;20051;-75
2021/04/15 02:35:02;;;;;;;9.02;3.20;;;;;;;0.77;75.97;102775.84;5041619;28;20032;-75
2021/04/15 02:37:51;;;;;;;5.15;3.45;;;;;;;0.83;74.63;102764.72;5055158;28;20052;-75
2021/04/15 02:41:02;;;;;;;9.90;3.95;;;;;;;0.81;76.42;102758.75;5040931;28;20017;-75
2021/04/15 02:43:51;;;;;;;9.57;3.95;;;;;;;0.86;75.81;102761.81;5042139;28;20043;-75
2021/04/15 02:46:25;;;;;;;7.78;3.15;;;;;;;0.91;74.06;102761.44;5058866;28;20175;-75
2021/04/15 02:48:54;;;;;;;5.83;3.37;;;;;;;0.98;73.84;102761.72;5045588;28;20042;-75
2021/04/15 02:52:00;;;;;;;5.93;2.78;;;;;;;1.02;73.86;102757.81;5058772;28;20024;-75
2021/04/15 02:54:31;;;;;;;6.40;3.55;;;;;;;1.07;73.43;102766.16;5027799;28;20033;-75
2021/04/15 02:57:08;;;;;;;5.47;3.10;;;;;;;1.06;73.94;102765.31;5047448;28;20020;-75
2021/04/15 02:59:37;;;;;;;6.70;3.03;;;;;;;1.06;73.46;102760.03;5064241;28;20021;-75
2021/04/15 03:02:15;;;;;;;6.80;3.22;;;;;;;1.02;74.16;102760.47;5060501;28;20184;-75
2021/04/15 03:04:46;;;;;;;8.18;3.40;;;;;;;1.08;73.16;102760.78;5060210;28;20075;-75
2021/04/15 03:07:12;;;;;;;10.10;3.85;;;;;;;1.11;72.74;102762.31;5079718;28;20983;-75
2021/04/15 03:09:39;;;;;;;5.68;3.15;;;;;;;1.08;73.13;102762.56;5076295;28;20107;-75
2021/04/15 03:12:32;;;;;;;6.07;3.20;;;;;;;0.98;75.08;102769.63;5080860;28;20039;-75
2021/04/15 03:15:04;;;;;;;8.25;3.53;;;;;;;1.04;73.27;102763.78;5038368;28;20125;-75
2021/04/15 03:17:32;;;;;;;4.20;3.20;;;;;;;1.03;74.30;102770.06;5081967;28;20052;-75
2021/04/15 03:20:03;;;;;;;8.35;3.17;;;;;;;1.03;74.09;102764.78;5064588;28;20038;-75
2021/04/15 03:22:34;;;;;;;4.38;2.53;;;;;;;1.04;74.17;102774.34;5063373;28;20020;-75
2021/04/15 03:25:01;;;;;;;3.55;2.35;;;;;;;1.05;73.79;102770.75;5079595;28;20808;-75
2021/04/15 03:27:44;;;;;;;6.72;2.53;;;;;;;1.03;74.57;102768.25;5067762;28;20085;-75
2021/04/15 03:30:24;;;;;;;4.75;2.60;;;;;;;1.09;73.70;102769.53;5077716;28;20044;-75
2021/04/15 03:33:10;;;;;;;5.47;2.95;;;;;;;1.10;73.96;102773.84;5080523;28;20025;-75
2021/04/15 03:36:16;;;;;;;5.07;2.35;;;;;;;1.10;73.82;102771.19;5081736;28;20623;-75
2021/04/15 03:38:51;;;;;;;3.50;2.47;;;;;;;1.10;73.80;102771.19;5063070;28;20079;-75
2021/04/15 03:41:51;;;;;;;4.03;2.10;;;;;;;1.09;74.50;102764.25;5068272;28;20028;-75
2021/04/15 03:44:47;;;;;;;3.80;2.35;;;;;;;1.13;73.98;102768.28;5038606;28;20044;-75
2021/04/15 03:47:23;;;;;;;6.10;2.42;;;;;;;1.12;74.65;102771.88;5081031;28;20473;-75
2021/04/15 03:49:59;;;;;;;5.35;2.28;;;;;;;1.16;73.64;102773.28;5060658;28;20699;-75
2021/04/15 03:52:30;;;;;;;7.43;1.92;;;;;;;1.21;73.83;102771.06;5061996;28;20116;-75
2021/04/15 03:55:21;;;;;;;4.93;1.55;;;;;;;1.18;73.85;102773.97;5068977;28;20032;-75
2021/04/15 03:57:51;;;;;;;4.65;1.98;;;;;;;1.23;73.76;102777.03;5059743;28;20067;-75
2021/04/15 04:00:24;;;;;;;2.45;1.73;;;;;;;1.27;73.14;102775.81;5077779;28;20493;-75
2021/04/15 04:02:57;;;;;;;3.65;1.88;;;;;;;1.28;73.06;102772.19;5080624;28;20032;-75
2021/04/15 04:05:27;;;;;;;3.30;1.90;;;;;;;1.29;73.35;102771.22;5077769;28;20028;-75
2021/04/15 04:08:00;;;;;;;5.28;1.75;;;;;;;1.32;73.58;102770.09;5062881;28;20108;-75
2021/04/15 04:10:33;;;;;;;5.30;2.10;;;;;;;1.33;73.62;102777.88;5077558;28;20020;-75
2021/04/15 04:13:04;;;;;;;3.90;1.70;;;;;;;1.33;73.91;102769.97;5060972;28;20042;-75
2021/04/15 04:15:38;;;;;;;3.40;1.70;;;;;;;1.35;73.16;102770.66;5065253;28;20550;-75
2021/04/15 04:18:13;;;;;;;2.08;1.38;;;;;;;1.36;73.86;102777.59;5077204;28;20081;-75
2021/04/15 04:20:41;;;;;;;5.43;1.98;;;;;;;1.43;73.45;102777.88;5081585;28;20020;-75
2021/04/15 04:23:34;;;;;;;3.10;1.55;;;;;;;1.43;73.53;102780.53;5062486;28;20032;-75
2021/04/15 04:26:18;;;;;;;2.63;1.60;;;;;;;1.43;73.42;102778.72;5062338;28;20036;-75
2021/04/15 04:29:06;;;;;;;2.97;1.60;;;;;;;1.44;73.84;102777.75;5077066;28;20077;-74
2021/04/15 04:31:38;;;;;;;3.03;1.60;;;;;;;1.51;73.17;102783.31;5077140;28;20095;-75
2021/04/15 04:34:05;;;;;;;3.50;1.98;;;;;;;1.54;73.20;102783.03;5078873;28;20086;-75
2021/04/15 04:36:34;;;;;;;4.43;1.80;;;;;;;1.60;72.86;102789.56;5064979;28;20023;-76
2021/04/15 04:39:00;;;;;;;3.85;2.13;;;;;;;1.64;73.07;102783.06;5062622;28;20924;-76
2021/04/15 04:41:32;;;;;;;4.57;2.63;;;;;;;1.67;72.59;102794.16;5063529;28;20061;-76
2021/04/15 04:44:06;;;;;;;2.33;1.58;;;;;;;1.72;72.99;102791.09;5063973;28;20038;-78
2021/04/15 04:46:43;;;;;;;3.57;1.87;;;;;;;1.73;74.03;102801.53;5064930;28;20111;-78
2021/04/15 04:49:29;;;;;;;3.00;1.95;;;;;;;1.80;72.76;102793.91;5062970;28;20372;-79
2021/04/15 04:52:01;;;;;;;3.92;2.05;;;;;;;1.89;72.51;102794.84;5081621;28;20024;-78
2021/04/15 04:54:27;;;;;;;3.65;2.10;;;;;;;1.96;72.15;102795.94;5069753;28;20020;-78
2021/04/15 04:57:02;;;;;;;3.20;2.03;;;;;;;1.97;72.46;102800.25;5084231;28;20393;-78
2021/04/15 04:59:35;;;;;;;4.50;2.88;;;;;;;2.03;72.15;102800.53;5059270;28;20086;-79
2021/04/15 05:02:01;;;;;;;3.80;2.28;;;;;;;2.09;72.40;102797.31;5055887;28;20048;-79
2021/04/15 05:04:32;;;;;;;5.47;2.65;;;;;;;2.18;72.16;102802.75;5074216;28;20059;-79
2021/04/15 05:07:04;;;;;;;3.75;1.90;;;;;;;2.25;71.80;102803.81;5062307;28;20062;-79
2021/04/15 05:09:37;;;;;;;3.22;2.10;;;;;;;2.30;71.43;102807.69;5048529;28;20028;-79
2021/04/15 05:12:10;;;;;;;6.20;2.67;;;;;;;2.39;70.81;102800.72;5054993;28;20020;-79
2021/04/15 05:14:36;;;;;;;3.75;2.30;;;;;;;2.48;70.61;102806.94;5070368;28;20120;-79
2021/04/15 05:17:06;;;;;;;4.05;2.05;;;;;;;2.55;70.38;102814.19;5057753;28;20028;-79
2021/04/15 05:19:35;;;;;;;2.47;1.55;;;;;;;2.61;70.31;102813.59;5076026;28;20031;-79
2021/04/15 05:22:04;;;;;;;2.08;1.40;;;;;;;2.70;69.81;102810.09;5067581;28;20099;-79
2021/04/15 05:24:40;;;;;;;2.38;1.63;;;;;;;2.75;69.25;102809.66;5059884;28;20063;-79
2021/04/15 05:27:07;;;;;;;5.28;1.30;;;;;;;2.81;69.62;102808.22;5067653;28;20023;-79
2021/04/15 05:29:37;;;;;;;4.57;1.65;;;;;;;2.87;69.24;102812.91;5055321;28;20027;-79
2021/04/15 05:32:03;;;;;;;3.58;1.60;;;;;;;2.95;69.23;102805.09;5069019;28;20477;-79
2021/04/15 05:34:35;;;;;;;3.90;1.50;;;;;;;2.97;69.03;102814.53;5058600;28;20028;-79
2021/04/15 05:37:13;;;;;;;2.90;1.75;;;;;;;2.99;69.26;102809.09;5057159;28;20478;-79
2021/04/15 05:39:38;;;;;;;7.57;1.65;;;;;;;3.08;68.35;102805.59;5070126;28;20059;-79
2021/04/15 05:42:04;;;;;;;3.83;1.67;;;;;;;3.12;68.40;102806.13;5057723;28;20111;-79
2021/04/15 05:44:39;;;;;;;3.92;1.50;;;;;;;3.21;67.72;102806.03;5074190;28;20372;-79
2021/04/15 05:47:23;;;;;;;3.92;1.35;;;;;;;3.27;67.42;102810.75;5056006;28;20040;-79
2021/04/15 05:50:11;;;;;;;1.80;1.30;;;;;;;3.29;67.42;102805.31;5071300;28;20421;-79
2021/04/15 05:52:38;;;;;;;2.08;1.42;;;;;;;3.39;67.19;102807.88;5078305;28;20032;-79
2021/04/15 05:55:10;;;;;;;3.08;1.30;;;;;;;3.47;67.20;102806.16;5058808;28;20085;-79
2021/04/15 05:57:43;;;;;;;4.43;1.00;;;;;;;3.53;67.01;102810.84;5043536;28;20075;-79
2021/04/15 06:00:14;;;;;;;2.78;1.13;;;;;;;3.61;66.89;102804.81;5033335;28;20562;-79
2021/04/15 06:02:51;;;;;;;2.35;1.10;;;;;;;3.74;65.98;102807.03;5050671;28;20039;-79
2021/04/15 06:05:24;;;;;;;5.15;2.47;;;;;;;3.83;65.55;102812.28;5051987;28;20138;-79
2021/04/15 06:07:52;;;;;;;8.77;3.97;;;;;;;3.97;65.38;102812.72;5035823;28;20028;-79
2021/04/15 06:10:24;;;;;;;11.50;5.68;;;;;;;4.05;64.70;102818.06;5030684;28;20028;-79
2021/04/15 06:12:58;;;;;;;9.75;5.25;;;;;;;4.12;64.66;102816.47;5051734;28;20024;-79
2021/04/15 06:15:30;;;;;;;4.50;2.42;;;;;;;4.24;64.57;102813.41;5040838;28;20795;-79
2021/04/15 06:18:01;;;;;;;3.33;2.20;;;;;;;4.23;64.14;102811.75;5037255;28;20036;-79
2021/04/15 06:20:33;;;;;;;3.15;1.70;;;;;;;4.36;63.47;102816.66;5056938;28;20028;-79
2021/04/15 06:23:04;;;;;;;4.13;1.33;;;;;;;4.44;63.54;102819.34;5048263;28;20043;-79
2021/04/15 06:25:33;;;;;;;3.10;1.40;;;;;;;4.59;63.63;102824.06;5041626;28;20447;-79
2021/04/15 06:28:16;;;;;;;5.75;1.73;;;;;;;4.72;62.59;102809.38;5056837;28;20048;-79
2021/04/15 06:30:54;;;;;;;3.45;1.63;;;;;;;4.85;62.17;102809.78;5040579;28;20591;-79
2021/04/15 06:33:20;;;;;;;4.25;1.63;;;;;;;4.92;61.70;102815.25;5051225;28;20033;-78
2021/04/15 06:35:51;;;;;;;6.20;1.92;;;;;;;4.97;61.18;102806.81;5041981;28;20054;-79
2021/04/15 06:38:16;;;;;;;4.30;1.95;;;;;;;5.13;60.93;102806.84;5057863;28;20068;-79
2021/04/15 06:40:58;;;;;;;1.52;1.15;;;;;;;5.07;60.32;102803.03;5055901;28;20059;-79
2021/04/15 06:43:41;;;;;;;4.38;2.28;;;;;;;5.23;60.47;102802.25;5063263;28;20028;-80
2021/04/15 06:46:33;;;;;;;8.02;2.60;;;;;;;5.37;59.37;102803.41;5061290;28;20491;-79
2021/04/15 06:49:10;;;;;;;7.63;2.13;;;;;;;5.44;59.08;102799.13;5057966;28;20032;-80
2021/04/15 06:51:46;;;;;;;5.20;1.80;;;;;;;5.44;58.88;102805.28;5055698;28;20025;-79
2021/04/15 06:54:30;;;;;;;5.25;2.00;;;;;;;5.56;58.68;102802.28;5061335;28;20031;-80
2021/04/15 06:57:02;;;;;;;5.63;1.80;;;;;;;5.55;58.56;102801.44;5062274;28;20036;-79
2021/04/15 07:00:06;;;;;;;4.78;1.70;;;;;;;5.55;58.36;102801.44;5063384;28;20194;-79
2021/04/15 07:02:56;;;;;;;3.00;1.60;;;;;;;5.70;58.31;102799.81;5059144;28;20555;-80
2021/04/15 07:05:29;;;;;;;4.05;1.40;;;;;;;5.61;57.56;102803.47;5064693;28;20024;-80
2021/04/15 07:08:11;;;;;;;3.45;1.40;;;;;;;5.81;57.40;102798.66;5065190;28;20028;-79
2021/04/15 07:10:54;;;;;;;2.10;1.35;;;;;;;5.80;57.09;102807.63;5080807;28;20020;-79
2021/04/15 07:13:32;;;;;;;3.97;1.48;;;;;;;5.79;56.82;102807.81;5079880;28;20431;-79
2021/04/15 07:16:01;;;;;;;4.32;1.55;;;;;;;5.88;57.26;102807.63;5082012;28;20027;-79
2021/04/15 07:18:51;;;;;;;6.13;1.50;;;;;;;5.93;56.47;102804.53;5077474;28;20043;-79
2021/04/15 07:21:35;;;;;;;6.05;1.48;;;;;;;6.05;56.29;102808.47;5066952;28;20042;-79
2021/04/15 07:24:30;;;;;;;4.88;1.30;;;;;;;6.05;54.94;102811.97;5062941;28;20024;-79
2021/04/15 07:27:14;;;;;;;3.15;0.98;;;;;;;6.12;54.30;102804.16;5060037;28;20036;-79
2021/04/15 07:29:43;;;;;;;2.45;0.95;;;;;;;6.03;53.66;102810.47;5072217;28;20133;-79
2021/04/15 07:32:27;;;;;;;4.63;1.42;;;;;;;5.91;51.82;102815.28;5058845;28;20421;-79
2021/04/15 07:35:04;;;;;;;5.18;1.65;;;;;;;6.02;52.99;102806.16;5079648;28;20466;-79
2021/04/15 07:37:48;;;;;;;3.38;0.95;;;;;;;5.97;52.70;102816.47;5091196;28;20493;-79
2021/04/15 07:40:42;;;;;;;2.28;1.02;;;;;;;5.75;51.29;102816.13;5062011;28;20027;-79
2021/04/15 07:43:38;;;;;;;3.25;0.85;;;;;;;5.89;51.39;102825.25;5065038;28;20143;-79
2021/04/15 07:46:10;;;;;;;1.75;0.85;;;;;;;5.87;50.24;102819.25;5064811;28;20031;-79
2021/04/15 07:48:54;;;;;;;2.47;0.80;;;;;;;5.98;51.41;102824.28;5057384;28;20559;-80
2021/04/15 07:51:45;;;;;;;3.35;1.17;;;;;;;6.00;49.41;102816.13;5085686;28;20521;-79
2021/04/15 07:54:27;;;;;;;3.30;1.20;;;;;;;6.00;50.32;102818.81;5063596;28;20661;-79
2021/04/15 07:57:30;;;;;;;1.95;1.02;;;;;;;6.27;49.65;102818.41;5065952;28;20584;-80
2021/04/15 08:00:11;;;;;;;20.20;1.70;;;;;;;6.48;50.29;102822.41;5060707;28;20207;-78
2021/04/15 08:03:10;;;;;;;2.60;1.13;;;;;;;6.61;49.34;102814.69;5059048;28;20452;-79
2021/04/15 08:05:51;;;;;;;2.55;1.20;;;;;;;6.56;47.61;102825.03;5060617;28;20024;-79
2021/04/15 08:08:52;;;;;;;3.72;1.27;;;;;;;6.59;47.41;102827.34;5079807;28;20714;-79
2021/04/15 08:12:00;;;;;;;5.90;1.70;;;;;;;6.86;47.63;102818.13;5060733;28;20033;-79
2021/04/15 08:14:37;;;;;;;5.00;1.30;;;;;;;6.75;46.89;102813.97;5028365;28;20482;-79
2021/04/15 08:17:51;;;;;;;4.85;1.08;;;;;;;6.91;46.17;102832.56;5065414;28;20035;-79
2021/04/15 08:20:54;;;;;;;4.28;1.20;;;;;;;7.15;47.01;102818.28;5067125;28;20043;-79
2021/04/15 08:23:47;;;;;;;3.47;1.27;;;;;;;7.11;45.24;102826.81;5076319;28;20474;-79
2021/04/15 08:26:38;;;;;;;5.90;1.10;;;;;;;7.33;45.59;102811.84;5063414;28;20047;-79
2021/04/15 08:29:34;;;;;;;3.88;0.95;;;;;;;7.27;45.67;102818.75;5079977;28;20080;-80
2021/04/15 08:32:28;;;;;;;1.92;0.80;;;;;;;7.29;44.21;102814.06;5075605;28;20055;-79
2021/04/15 08:35:32;;;;;;;2.72;0.80;;;;;;;7.28;43.88;102817.72;5069057;28;20062;-79
2021/04/15 08:38:24;;;;;;;2.83;0.80;;;;;;;7.28;42.89;102810.56;5082523;28;20028;-79
2021/04/15 08:41:11;;;;;;;1.42;1.20;;;;;;;7.42;42.93;102814.31;5064463;28;20036;-78
2021/04/15 08:44:12;;;;;;;3.08;0.90;;;;;;;7.67;43.04;102812.28;5060282;28;20038;-79
2021/04/15 08:46:48;;;;;;;3.53;1.15;;;;;;;7.66;43.06;102807.13;5075526;28;20565;-79
2021/04/15 08:49:25;;;;;;;4.80;1.30;;;;;;;7.72;42.80;102809.09;5070521;28;20040;-79
2021/04/15 08:52:06;;;;;;;3.17;1.17;;;;;;;7.85;42.33;102807.47;5051508;28;20024;-79
2021/04/15 08:54:50;;;;;;;1.60;0.90;;;;;;;8.17;42.40;102811.69;5053989;28;20100;-79
2021/04/15 08:57:15;;;;;;;1.98;0.82;;;;;;;8.30;41.61;102803.06;5072177;28;20036;-79
2021/04/15 08:59:55;;;;;;;3.40;0.95;;;;;;;8.16;40.46;102818.06;5069119;28;20036;-79
2021/04/15 09:03:07;;;;;;;2.33;0.93;;;;;;;8.26;41.09;102814.28;5060169;28;20077;-79
2021/04/15 09:06:10;;;;;;;6.22;1.63;;;;;;;8.47;40.31;102820.63;5071286;28;20024;-79
2021/04/15 09:08:45;;;;;;;2.05;1.00;;;;;;;8.54;39.42;102810.00;5049982;28;20032;-79
2021/04/15 09:11:25;;;;;;;7.95;1.00;;;;;;;8.62;39.50;102809.94;5063843;28;20027;-79
2021/04/15 09:14:14;;;;;;;2.42;0.93;;;;;;;8.87;39.60;102809.63;5072961;28;20496;-80
2021/04/15 09:16:42;;;;;;;3.08;0.85;;;;;;;9.03;38.54;102812.09;5058401;28;20060;-79
2021/04/15 09:19:33;;;;;;;1.85;0.82;;;;;;;9.04;39.04;102811.91;5070077;28;20080;-79
2021/04/15 09:22:25;;;;;;;1.95;1.52;;;;;;;9.02;37.36;102813.13;5060517;28;20056;-79
2021/04/15 09:25:17;;;;;;;1.73;0.80;;;;;;;9.20;37.67;102804.69;5056610;28;20035;-80
2021/04/15 09:27:58;;;;;;;2.00;0.80;;;;;;;9.10;37.86;102807.66;5064995;28;20040;-79
2021/04/15 09:30:49;;;;;;;5.75;0.80;;;;;;;9.07;38.25;102797.34;5080331;28;20688;-79
2021/04/15 09:33:15;;;;;;;1.55;0.63;;;;;;;9.29;38.30;102788.31;5064608;28;20617;-79
2021/04/15 09:35:57;;;;;;;1.02;0.60;;;;;;;8.87;36.98;102793.59;5059426;28;20042;-78
2021/04/15 09:38:49;;;;;;;1.75;0.60;;;;;;;8.79;38.09;102794.50;5066415;28;20062;-80
2021/04/15 09:41:33;;;;;;;1.58;1.02;;;;;;;8.63;37.69;102792.06;5060049;28;20443;-79
2021/04/15 09:44:36;;;;;;;1.10;0.60;;;;;;;8.98;37.68;102790.44;5061154;28;20028;-79
2021/04/15 09:47:26;;;;;;;2.60;0.68;;;;;;;9.13;38.04;102777.03;5077711;28;20028;-80
2021/04/15 09:50:29;;;;;;;2.42;0.80;;;;;;;9.36;37.42;102775.84;5065957;28;20027;-80
2021/04/15 09:52:55;;;;;;;3.00;0.95;;;;;;;9.48;36.63;102780.69;5061242;28;20024;-80
2021/04/15 09:55:43;;;;;;;2.60;0.60;;;;;;;8.76;36.36;102789.53;5070506;28;20024;-79
2021/04/15 09:58:31;;;;;;;3.03;0.70;;;;;;;8.75;37.05;102793.22;5049645;28;20037;-80
2021/04/15 10:01:02;;;;;;;3.13;0.70;;;;;;;8.96;37.59;102790.59;5034480;28;20112;-79
2021/04/15 10:04:12;;;;;;;1.25;0.70;;;;;;;9.09;37.17;102776.56;5059673;28;20067;-79
2021/04/15 10:06:44;;;;;;;2.13;0.90;;;;;;;9.22;36.37;102775.91;5038249;28;20040;-79
2021/04/15 10:09:35;;;;;;;2.70;0.68;;;;;;;9.44;36.34;102779.41;5043400;28;20028;-79
2021/04/15 10:12:29;;;;;;;2.28;0.82;;;;;;;9.66;36.04;102771.19;5042434;28;20777;-79
2021/04/15 10:15:13;;;;;;;3.95;0.80;;;;;;;9.63;35.86;102770.75;5049550;28;20041;-79
2021/04/15 10:17:54;;;;;;;2.05;0.77;;;;;;;9.73;35.32;102776.59;5048719;28;20040;-80
2021/04/15 10:20:26;;;;;;;1.95;1.10;;;;;;;9.77;35.26;102763.66;5058650;28;20028;-80
2021/04/15 10:22:58;;;;;;;5.65;1.10;;;;;;;9.64;36.05;102764.38;5052016;28;20033;-80
2021/04/15 10:25:30;;;;;;;4.38;1.27;;;;;;;9.87;35.99;102769.50;5046552;28;20032;-80
2021/04/15 10:28:13;;;;;;;1.17;0.93;;;;;;;10.19;36.43;102768.91;5044188;28;20094;-80
2021/04/15 10:31:16;;;;;;;2.72;1.20;;;;;;;10.15;35.20;102767.66;5058994;28;20086;-80
2021/04/15 10:34:02;;;;;;;2.55;1.33;;;;;;;10.09;35.48;102768.44;5049969;28;20499;-80
2021/04/15 10:36:50;;;;;;;1.63;1.00;;;;;;;9.99;36.63;102765.28;5039313;28;20036;-79
2021/04/15 10:39:28;;;;;;;2.83;1.10;;;;;;;9.83;35.98;102763.69;5049603;28;20028;-79
2021/04/15 10:42:12;;;;;;;3.67;1.20;;;;;;;9.60;36.42;102769.28;5061256;28;20082;-80
2021/04/15 10:45:18;;;;;;;1.63;1.00;;;;;;;9.76;37.19;102762.84;5060671;28;20724;-79
2021/04/15 10:47:55;;;;;;;;;;;;;;;9.73;37.69;102757.03;5026124;28;20036;-79
2021/04/15 10:50:24;;;;;;;2.00;0.80;;;;;;;9.95;37.33;102751.44;5053115;28;20355;-79
2021/04/15 10:53:19;;;;;;;1.52;0.60;;;;;;;10.15;37.83;102759.63;5049550;28;20035;-80
2021/04/15 10:55:52;;;;;;;;;;;;;;;10.13;37.60;102759.00;5055093;28;20204;-79
2021/04/15 10:58:30;;;;;;;2.58;1.23;;;;;;;10.21;37.10;102761.53;5039436;28;19919;-79
2021/04/15 11:00:57;;;;;;;4.60;0.80;;;;;;;10.41;36.36;102745.59;5072530;28;20111;-79
2021/04/15 11:03:33;;;;;;;1.50;0.80;;;;;;;10.62;36.01;102751.88;5063866;28;20024;-80
2021/04/15 11:05:58;;;;;;;4.10;1.02;;;;;;;10.33;36.59;102753.78;5053940;28;20388;-79
2021/04/15 11:08:24;;;;;;;2.92;1.13;;;;;;;10.09;36.44;102752.38;5056470;28;20043;-79
2021/04/15 11:11:06;;;;;;;5.53;0.88;;;;;;;10.01;35.82;102765.91;5053841;28;20028;-79
2021/04/15 11:13:32;;;;;;;5.35;0.80;;;;;;;9.63;36.28;102755.50;5058549;28;20385;-81
2021/04/15 11:16:01;;;;;;;1.58;0.60;;;;;;;9.48;36.57;102759.28;5048931;28;20434;-80
2021/04/15 11:18:33;;;;;;;0.95;0.60;;;;;;;9.21;36.05;102758.19;5056484;28;21668;-79
2021/04/15 11:21:21;;;;;;;0.57;0.50;;;;;;;9.13;37.26;102745.75;5053418;28;20029;-78
2021/04/15 11:23:49;;;;;;;1.63;0.60;;;;;;;9.50;37.36;102754.56;5064504;28;20028;-78
2021/04/15 11:26:49;;;;;;;0.80;0.50;;;;;;;9.37;37.07;102748.09;5059166;28;20028;-79
2021/04/15 11:29:48;;;;;;;1.00;0.60;;;;;;;9.21;36.12;102760.88;5057432;28;20036;-78
2021/04/15 11:32:33;;;;;;;1.40;0.60;;;;;;;8.88;37.04;102758.66;5076362;28;20725;-78
2021/04/15 11:35:14;;;;;;;1.60;0.50;;;;;;;8.73;37.61;102764.03;5058028;28;20025;-79
2021/04/15 11:37:42;;;;;;;11.38;1.77;;;;;;;8.56;37.53;102759.06;5057737;28;20016;-79
2021/04/15 11:40:16;;;;;;;0.82;0.70;;;;;;;8.67;37.05;102759.44;5063150;28;20510;-79
2021/04/15 11:42:42;;;;;;;1.70;0.43;;;;;;;8.69;37.09;102752.06;5058661;28;20150;-78
2021/04/15 11:45:11;;;;;;;1.45;0.50;;;;;;;8.74;37.11;102746.97;5077178;28;20031;-79
2021/04/15 11:47:37;;;;;;;0.50;0.35;;;;;;;8.94;36.95;102746.38;5059472;28;20024;-78
2021/04/15 11:50:12;;;;;;;3.70;0.52;;;;;;;8.94;36.30;102751.72;5073924;28;20020;-78
2021/04/15 11:52:41;;;;;;;3.55;0.70;;;;;;;8.95;37.41;102740.84;5058840;28;20039;-79
2021/04/15 11:55:32;;;;;;;2.83;0.50;;;;;;;8.99;37.19;102746.66;5057591;28;20066;-78
2021/04/15 11:58:19;;;;;;;0.45;0.40;;;;;;;8.57;36.91;102750.03;5057637;28;20046;-78
2021/04/15 12:00:45;;;;;;;0.63;0.50;;;;;;;8.33;38.31;102743.94;5058328;28;20071;-78
2021/04/15 12:03:16;;;;;;;2.28;0.50;;;;;;;7.96;38.19;102747.50;5057819;28;20504;-78
2021/04/15 12:05:45;;;;;;;0.73;0.60;;;;;;;7.85;38.32;102748.75;5075470;28;20110;-78
2021/04/15 12:08:12;;;;;;;1.33;0.60;;;;;;;7.79;38.53;102744.16;5060555;28;20459;-79
2021/04/15 12:11:03;;;;;;;0.70;0.57;;;;;;;8.00;38.55;102743.44;5053963;28;20059;-79
2021/04/15 12:13:37;;;;;;;1.63;0.57;;;;;;;7.90;38.60;102729.56;5044491;28;20060;-79
2021/04/15 12:16:29;;;;;;;0.45;0.40;;;;;;;8.04;38.62;102736.72;5075460;28;20043;-78
2021/04/15 12:19:10;;;;;;;0.30;0.30;;;;;;;7.90;38.57;102740.25;5026179;28;20276;-80
2021/04/15 12:21:46;;;;;;;0.60;0.50;;;;;;;7.88;38.57;102735.03;5077680;28;20059;-79
2021/04/15 12:24:28;;;;;;;3.40;0.50;;;;;;;7.91;38.99;102733.88;5073899;28;20052;-79